Time;durP1;ratioP1;P1;durP2;ratioP2;P2;SDS_P1;SDS_P2;PMS_P1;PMS_P2;Temp;Humidity;BMP_temperature;BMP_pressure;BME280_temperature;BME280_humidity;BME280_pressure;Samples;Min_cycle;Max_cycle;Signal;HPM_P1;HPM_P2
2023/08/27 00:00:20;;;;;;;4.32;2.63;;;17.90;99.90;;;;;;2482735;23;20429;-73
2023/08/27 00:01:22;;;;;;;3.55;2.35;;;17.90;99.90;;;;;;2481379;23;20091;-73
2023/08/27 00:02:22;;;;;;;3.00;2.25;;;17.90;99.90;;;;;;2481514;23;20099;-73
2023/08/27 00:03:23;;;;;;;6.00;2.55;;;17.90;99.90;;;;;;2494582;23;20015;-73
2023/08/27 00:04:24;;;;;;;3.30;2.58;;;17.90;99.90;;;;;;2495106;23;20118;-73
2023/08/27 00:05:25;;;;;;;5.32;2.30;;;17.90;99.90;;;;;;2481865;23;20011;-73
2023/08/27 00:06:26;;;;;;;3.75;2.50;;;17.90;99.90;;;;;;2482670;23;20031;-73
2023/08/27 00:07:26;;;;;;;4.97;2.72;;;17.90;99.90;;;;;;2495311;23;20614;-73
2023/08/27 00:08:27;;;;;;;3.28;2.70;;;17.90;99.90;;;;;;2479651;23;20012;-73
2023/08/27 00:09:27;;;;;;;3.00;2.67;;;17.90;99.90;;;;;;2482880;23;20004;-73
2023/08/27 00:10:28;;;;;;;4.43;3.10;;;17.90;99.90;;;;;;2495760;23;20075;-73
2023/08/27 00:11:28;;;;;;;3.92;2.45;;;17.90;99.90;;;;;;2495469;23;20007;-73
2023/08/27 00:12:29;;;;;;;5.40;3.40;;;17.90;99.90;;;;;;2494705;23;20042;-73
2023/08/27 00:13:30;;;;;;;6.25;2.97;;;17.90;99.90;;;;;;2482840;23;20110;-73
2023/08/27 00:14:30;;;;;;;3.28;2.75;;;17.80;99.90;;;;;;2482331;23;20330;-73
2023/08/27 00:15:31;;;;;;;3.78;3.25;;;17.80;99.90;;;;;;2493508;23;20007;-73
2023/08/27 00:16:31;;;;;;;4.28;3.15;;;17.80;99.90;;;;;;2494406;23;20007;-73
2023/08/27 00:17:32;;;;;;;5.20;3.20;;;17.80;99.90;;;;;;2482454;23;20111;-73
2023/08/27 00:18:33;;;;;;;5.43;2.22;;;17.80;99.90;;;;;;2495689;23;20086;-73
2023/08/27 00:19:33;;;;;;;4.30;2.70;;;17.80;99.90;;;;;;2494733;23;20078;-73
2023/08/27 00:20:34;;;;;;;5.25;2.70;;;17.80;99.90;;;;;;2494757;23;20340;-73
2023/08/27 00:21:35;;;;;;;3.63;2.85;;;17.80;99.90;;;;;;2495546;23;20029;-73
2023/08/27 00:22:37;;;;;;;4.47;2.28;;;17.80;99.90;;;;;;2493772;23;20733;-73
2023/08/27 00:23:39;;;;;;;4.22;2.92;;;17.80;99.90;;;;;;2495588;23;20067;-73
2023/08/27 00:24:40;;;;;;;3.58;2.90;;;17.80;99.90;;;;;;2495630;23;20014;-73
2023/08/27 00:25:43;;;;;;;5.00;3.10;;;17.80;99.90;;;;;;2494363;23;20015;-73
2023/08/27 00:26:44;;;;;;;3.10;2.58;;;17.90;99.90;;;;;;2483290;23;20018;-73
2023/08/27 00:27:44;;;;;;;5.18;2.97;;;17.80;99.90;;;;;;2482764;23;20018;-73
2023/08/27 00:28:45;;;;;;;3.45;3.00;;;17.80;99.90;;;;;;2494398;23;20007;-73
2023/08/27 00:29:46;;;;;;;6.75;2.95;;;17.80;99.90;;;;;;2495137;23;20003;-73
2023/08/27 00:30:46;;;;;;;4.38;2.80;;;17.80;99.90;;;;;;2495089;23;20013;-73
2023/08/27 00:31:47;;;;;;;6.32;3.03;;;17.80;99.90;;;;;;2495283;23;20015;-73
2023/08/27 00:32:47;;;;;;;5.28;3.30;;;17.80;99.90;;;;;;2494946;23;20031;-73
2023/08/27 00:33:48;;;;;;;3.95;3.00;;;17.80;99.90;;;;;;2494812;23;20030;-73
2023/08/27 00:34:48;;;;;;;4.82;3.28;;;17.80;99.90;;;;;;2495273;23;20014;-73
2023/08/27 00:35:53;;;;;;;3.67;2.88;;;17.80;99.90;;;;;;2495316;23;20003;-73
2023/08/27 00:36:53;;;;;;;7.35;3.38;;;17.80;99.90;;;;;;2495417;23;19999;-73
2023/08/27 00:37:54;;;;;;;5.57;3.40;;;17.70;99.90;;;;;;2495326;23;20452;-73
2023/08/27 00:38:54;;;;;;;7.35;3.80;;;17.70;99.90;;;;;;2495204;23;20369;-73
2023/08/27 00:39:55;;;;;;;3.42;3.13;;;17.70;99.90;;;;;;2495291;23;20051;-73
2023/08/27 00:40:56;;;;;;;4.13;3.22;;;17.70;99.90;;;;;;2495778;23;20004;-73
2023/08/27 00:41:57;;;;;;;5.53;3.13;;;17.70;99.90;;;;;;2495138;23;20086;-73
2023/08/27 00:42:57;;;;;;;5.78;3.58;;;17.70;99.90;;;;;;2495065;23;20026;-73
2023/08/27 00:43:58;;;;;;;4.57;3.22;;;17.70;99.90;;;;;;2494916;23;20027;-73
2023/08/27 00:44:58;;;;;;;5.43;3.00;;;17.70;99.90;;;;;;2495146;23;19999;-73
2023/08/27 00:45:59;;;;;;;4.13;3.13;;;17.70;99.90;;;;;;2495002;23;20437;-73
2023/08/27 00:47:00;;;;;;;3.55;3.10;;;17.70;99.90;;;;;;2494279;23;20508;-73
2023/08/27 00:48:01;;;;;;;4.32;3.47;;;17.70;99.90;;;;;;2495373;23;20357;-73
2023/08/27 00:49:01;;;;;;;3.85;3.42;;;17.70;99.90;;;;;;2495252;23;20004;-73
2023/08/27 00:50:03;;;;;;;5.65;2.92;;;17.70;99.90;;;;;;2495555;23;19996;-73
2023/08/27 00:51:04;;;;;;;4.55;3.25;;;17.70;99.90;;;;;;2496033;23;20015;-73
2023/08/27 00:52:07;;;;;;;6.00;3.53;;;17.70;99.90;;;;;;2482704;23;20087;-73
2023/08/27 00:53:08;;;;;;;6.68;3.53;;;17.70;99.90;;;;;;2483700;23;20693;-73
2023/08/27 00:54:10;;;;;;;4.13;2.97;;;17.70;99.90;;;;;;2496029;23;20420;-73
2023/08/27 00:55:10;;;;;;;8.05;3.20;;;17.70;99.90;;;;;;2495451;23;20003;-73
2023/08/27 00:56:11;;;;;;;5.47;2.95;;;17.70;99.90;;;;;;2496477;23;20007;-73
2023/08/27 00:57:12;;;;;;;5.30;3.25;;;17.70;99.90;;;;;;2495621;23;20007;-73
2023/08/27 00:58:13;;;;;;;6.22;3.15;;;17.70;99.90;;;;;;2495690;23;20003;-73
2023/08/27 00:59:14;;;;;;;5.35;2.80;;;17.70;99.90;;;;;;2495952;23;19999;-73
2023/08/27 01:00:16;;;;;;;6.00;3.03;;;17.60;99.90;;;;;;2495925;23;20011;-72
2023/08/27 01:01:18;;;;;;;4.55;3.15;;;17.60;99.90;;;;;;2496150;23;20019;-72
2023/08/27 01:02:19;;;;;;;3.95;3.13;;;17.60;99.90;;;;;;2495036;23;20389;-72
2023/08/27 01:03:19;;;;;;;4.13;2.72;;;17.60;99.90;;;;;;2496132;23;20016;-72
2023/08/27 01:04:20;;;;;;;6.72;3.30;;;17.60;99.90;;;;;;2493800;23;20050;-72
2023/08/27 01:05:23;;;;;;;4.78;3.38;;;17.60;99.90;;;;;;2492708;23;20006;-72
2023/08/27 01:06:24;;;;;;;6.13;3.40;;;17.60;99.90;;;;;;2495494;23;20031;-72
2023/08/27 01:07:53;;;;;;;3.53;2.78;;;17.50;99.90;;;;;;2495842;23;20035;-72
2023/08/27 01:09:13;;;;;;;4.68;3.03;;;17.50;99.90;;;;;;2495890;23;20011;-72
2023/08/27 01:10:36;;;;;;;6.40;3.33;;;17.50;99.90;;;;;;2495880;23;20028;-72
2023/08/27 01:12:06;;;;;;;5.53;3.33;;;17.40;99.90;;;;;;2496473;23;20015;-72
2023/08/27 01:13:09;;;;;;;;;;;17.40;99.90;;;;;;2496395;23;20007;-72
2023/08/27 01:14:10;;;;;;;6.35;3.05;;;17.30;99.90;;;;;;2495297;23;19906;-72
2023/08/27 01:15:13;;;;;;;4.63;3.00;;;17.30;99.90;;;;;;2483178;23;20003;-72
2023/08/27 01:16:15;;;;;;;4.07;2.75;;;17.30;99.90;;;;;;2484180;23;20004;-72
2023/08/27 01:17:18;;;;;;;6.10;2.63;;;17.40;99.90;;;;;;2495837;23;20011;-72
2023/08/27 01:18:19;;;;;;;6.85;3.63;;;17.40;99.90;;;;;;2495317;23;20636;-72
2023/08/27 01:19:22;;;;;;;4.88;3.20;;;17.40;99.90;;;;;;2496263;23;20007;-72
2023/08/27 01:20:23;;;;;;;4.20;3.08;;;17.40;99.90;;;;;;2494969;23;20063;-72
2023/08/27 01:21:25;;;;;;;6.18;3.17;;;17.40;99.90;;;;;;2495907;23;20003;-72
2023/08/27 01:22:25;;;;;;;4.82;3.30;;;17.40;99.90;;;;;;2495243;23;20321;-72
2023/08/27 01:23:26;;;;;;;4.35;3.00;;;17.40;99.90;;;;;;2495308;23;20034;-72
2023/08/27 01:24:27;;;;;;;4.60;2.80;;;17.50;99.90;;;;;;2495660;23;20030;-72
2023/08/27 01:25:42;;;;;;;4.47;2.90;;;17.40;99.90;;;;;;2495976;23;20007;-72
2023/08/27 01:26:57;;;;;;;2.97;2.58;;;17.40;99.90;;;;;;2495355;23;20007;-72
2023/08/27 01:28:14;;;;;;;5.20;3.10;;;17.40;99.90;;;;;;2496136;23;20011;-72
2023/08/27 01:29:40;;;;;;;7.50;3.25;;;17.40;99.90;;;;;;2495630;23;20034;-72
2023/08/27 01:31:14;;;;;;;3.97;3.38;;;17.30;99.90;;;;;;2489529;23;20011;-72
2023/08/27 01:32:38;;;;;;;4.88;3.10;;;17.30;99.90;;;;;;2488086;23;20638;-72
2023/08/27 01:33:40;;;;;;;4.90;3.13;;;17.20;99.90;;;;;;2495730;23;20014;-72
2023/08/27 01:34:42;;;;;;;4.00;3.00;;;17.20;99.90;;;;;;2495389;23;20004;-72
2023/08/27 01:35:44;;;;;;;4.25;2.70;;;17.10;99.90;;;;;;2495378;23;20011;-72
2023/08/27 01:36:46;;;;;;;4.65;3.40;;;17.20;99.90;;;;;;2496115;23;20610;-72
2023/08/27 01:37:46;;;;;;;5.28;3.45;;;17.20;99.90;;;;;;2494942;23;20028;-72
2023/08/27 01:38:47;;;;;;;3.78;2.85;;;17.10;99.90;;;;;;2496010;23;20607;-72
2023/08/27 01:39:58;;;;;;;8.00;3.33;;;17.10;99.90;;;;;;2495712;23;20010;-72
2023/08/27 01:40:59;;;;;;;3.97;3.60;;;17.10;99.90;;;;;;2496251;23;20078;-72
2023/08/27 01:41:59;;;;;;;3.30;2.47;;;17.10;99.90;;;;;;2495638;23;19995;-72
2023/08/27 01:43:00;;;;;;;4.38;3.10;;;17.20;99.90;;;;;;2495688;23;20113;-72
2023/08/27 01:44:00;;;;;;;3.80;2.92;;;17.20;99.90;;;;;;2495327;23;20078;-72
2023/08/27 01:45:05;;;;;;;4.32;3.33;;;17.20;99.90;;;;;;2494992;23;20003;-72
2023/08/27 01:46:05;;;;;;;7.80;3.65;;;17.20;99.90;;;;;;2495743;23;20000;-72
2023/08/27 01:47:06;;;;;;;5.68;3.38;;;17.10;99.90;;;;;;2495496;23;20491;-72
2023/08/27 01:48:07;;;;;;;4.93;3.22;;;17.10;99.90;;;;;;2493889;23;20053;-72
2023/08/27 01:49:07;;;;;;;3.55;3.00;;;17.10;99.90;;;;;;2495564;23;20416;-72
2023/08/27 01:50:08;;;;;;;3.80;3.20;;;17.10;99.90;;;;;;2495623;23;20324;-72
2023/08/27 01:51:09;;;;;;;5.38;3.25;;;17.10;99.90;;;;;;2495914;23;20013;-72
2023/08/27 01:52:09;;;;;;;4.97;3.15;;;17.10;99.90;;;;;;2482271;23;20012;-72
2023/08/27 01:53:10;;;;;;;7.07;3.53;;;17.10;99.90;;;;;;2482679;23;20099;-72
2023/08/27 01:54:11;;;;;;;4.68;3.80;;;17.10;99.90;;;;;;2495875;23;20023;-72
2023/08/27 01:55:12;;;;;;;9.40;3.75;;;17.10;99.90;;;;;;2495872;23;20006;-72
2023/08/27 01:56:13;;;;;;;4.82;3.33;;;17.00;99.90;;;;;;2495586;23;20010;-72
2023/08/27 01:57:13;;;;;;;4.70;3.00;;;17.00;99.90;;;;;;2495603;23;19999;-72
2023/08/27 01:58:14;;;;;;;4.28;2.97;;;17.00;99.90;;;;;;2495065;23;20026;-73
2023/08/27 01:59:14;;;;;;;5.10;3.38;;;17.00;99.90;;;;;;2496324;23;20011;-72
2023/08/27 02:00:16;;;;;;;4.60;3.30;;;17.00;99.90;;;;;;2493629;23;20091;-72
2023/08/27 02:01:17;;;;;;;4.97;3.65;;;17.00;99.90;;;;;;2495680;23;20003;-72
2023/08/27 02:02:18;;;;;;;4.32;3.35;;;17.00;99.90;;;;;;2494240;23;20035;-72
2023/08/27 02:03:18;;;;;;;4.32;3.13;;;16.90;99.90;;;;;;2495705;23;20007;-72
2023/08/27 02:04:19;;;;;;;5.68;3.50;;;16.90;99.90;;;;;;2495972;23;20015;-73
2023/08/27 02:05:19;;;;;;;5.47;3.78;;;16.90;99.90;;;;;;2494947;23;20086;-72
2023/08/27 02:06:20;;;;;;;3.17;2.70;;;16.90;99.90;;;;;;2493471;23;20011;-72
2023/08/27 02:07:20;;;;;;;5.47;2.90;;;16.90;99.90;;;;;;2495977;23;20043;-72
2023/08/27 02:08:21;;;;;;;5.45;3.53;;;16.90;99.90;;;;;;2482937;23;20475;-72
2023/08/27 02:09:21;;;;;;;5.60;3.25;;;16.90;99.90;;;;;;2483435;23;20023;-72
2023/08/27 02:10:22;;;;;;;6.47;3.35;;;16.90;99.90;;;;;;2495742;23;20039;-72
2023/08/27 02:11:22;;;;;;;5.65;3.92;;;16.80;99.90;;;;;;2495772;23;20014;-72
2023/08/27 02:12:23;;;;;;;5.47;3.58;;;16.90;99.90;;;;;;2482068;23;20503;-72
2023/08/27 02:13:24;;;;;;;4.50;3.63;;;16.90;99.90;;;;;;2483055;23;20040;-72
2023/08/27 02:14:24;;;;;;;5.95;3.30;;;16.80;99.90;;;;;;2495526;23;20014;-72
2023/08/27 02:15:25;;;;;;;5.32;3.67;;;16.80;99.90;;;;;;2495616;23;20013;-72
2023/08/27 02:16:25;;;;;;;5.40;3.78;;;16.80;99.90;;;;;;2482388;23;20381;-72
2023/08/27 02:17:26;;;;;;;9.43;3.15;;;16.80;99.90;;;;;;2483363;23;20063;-72
2023/08/27 02:18:26;;;;;;;3.90;3.30;;;16.80;99.90;;;;;;2496107;23;20340;-72
2023/08/27 02:19:27;;;;;;;5.68;2.95;;;16.80;99.90;;;;;;2495518;23;20003;-72
2023/08/27 02:20:28;;;;;;;6.35;2.88;;;16.80;99.90;;;;;;2495764;23;20086;-72
2023/08/27 02:21:29;;;;;;;4.22;2.92;;;16.80;99.90;;;;;;2482749;23;20008;-72
2023/08/27 02:22:29;;;;;;;5.40;3.00;;;16.80;99.90;;;;;;2482041;23;20003;-72
2023/08/27 02:23:30;;;;;;;4.03;2.92;;;16.80;99.90;;;;;;2495965;23;20007;-72
2023/08/27 02:24:30;;;;;;;5.07;3.17;;;16.80;99.90;;;;;;2495859;23;20011;-72
2023/08/27 02:25:31;;;;;;;3.92;3.13;;;16.70;99.90;;;;;;2483046;23;20480;-72
2023/08/27 02:26:32;;;;;;;4.95;3.00;;;16.70;99.90;;;;;;2483483;23;20016;-72
2023/08/27 02:27:32;;;;;;;6.53;2.85;;;16.70;99.90;;;;;;2481915;23;20500;-72
2023/08/27 02:28:33;;;;;;;3.05;2.75;;;16.70;99.90;;;;;;2495838;23;20027;-72
2023/08/27 02:29:34;;;;;;;3.75;2.63;;;16.70;99.90;;;;;;2495703;23;20039;-72
2023/08/27 02:30:34;;;;;;;3.95;2.80;;;16.70;99.90;;;;;;2495100;23;20014;-72
2023/08/27 02:31:35;;;;;;;2.60;2.40;;;16.70;99.90;;;;;;2495515;23;20038;-72
2023/08/27 02:32:35;;;;;;;3.72;2.63;;;16.80;99.90;;;;;;2494022;23;20007;-72
2023/08/27 02:33:36;;;;;;;4.47;2.80;;;16.70;99.90;;;;;;2495384;23;20003;-72
2023/08/27 02:34:36;;;;;;;4.45;2.80;;;16.70;99.90;;;;;;2495722;23;20019;-72
2023/08/27 02:35:37;;;;;;;2.95;2.50;;;16.70;99.90;;;;;;2494905;23;20003;-72
2023/08/27 02:36:37;;;;;;;2.75;2.25;;;16.70;99.90;;;;;;2494797;23;20051;-72
2023/08/27 02:37:38;;;;;;;3.17;2.58;;;16.70;99.90;;;;;;2483082;23;20561;-72
2023/08/27 02:38:38;;;;;;;3.88;2.50;;;16.70;99.90;;;;;;2482804;23;20094;-72
2023/08/27 02:39:39;;;;;;;5.43;2.40;;;16.70;99.90;;;;;;2483257;23;20000;-72
2023/08/27 02:40:40;;;;;;;2.83;2.60;;;16.70;99.90;;;;;;2494057;23;20069;-72
2023/08/27 02:41:41;;;;;;;3.38;2.65;;;16.70;99.90;;;;;;2494483;23;20368;-72
2023/08/27 02:42:41;;;;;;;4.95;2.72;;;16.70;99.90;;;;;;2495184;23;20015;-72
2023/08/27 02:43:42;;;;;;;2.53;2.20;;;16.70;99.90;;;;;;2495344;23;20011;-72
2023/08/27 02:44:42;;;;;;;4.15;2.72;;;16.70;99.90;;;;;;2494445;23;20062;-72
2023/08/27 02:45:45;;;;;;;4.00;2.70;;;16.70;99.90;;;;;;2482324;23;20016;-72
2023/08/27 02:46:45;;;;;;;5.07;2.90;;;16.70;99.90;;;;;;2482763;23;20064;-72
2023/08/27 02:47:46;;;;;;;3.35;2.22;;;16.70;99.90;;;;;;2483262;23;20082;-72
2023/08/27 02:48:46;;;;;;;5.30;2.45;;;16.70;99.90;;;;;;2495876;23;20011;-72
2023/08/27 02:49:47;;;;;;;3.53;2.42;;;16.60;99.90;;;;;;2495573;23;20328;-72
2023/08/27 02:50:47;;;;;;;4.63;2.85;;;16.60;99.90;;;;;;2495690;23;20038;-72
2023/08/27 02:51:48;;;;;;;4.60;2.60;;;16.70;99.90;;;;;;2494569;23;20078;-72
2023/08/27 02:52:49;;;;;;;3.50;2.30;;;16.70;99.90;;;;;;2494183;23;20003;-72
2023/08/27 02:53:51;;;;;;;3.95;2.35;;;16.70;99.90;;;;;;2495960;23;20354;-72
2023/08/27 02:54:51;;;;;;;3.88;2.40;;;16.70;99.90;;;;;;2495019;23;20002;-72
2023/08/27 02:55:52;;;;;;;8.57;2.80;;;16.70;99.90;;;;;;2494699;23;20378;-72
2023/08/27 02:56:52;;;;;;;5.15;2.45;;;16.70;99.90;;;;;;2495598;23;20004;-72
2023/08/27 02:57:53;;;;;;;3.97;2.65;;;16.70;99.90;;;;;;2494833;23;20003;-72
2023/08/27 02:58:53;;;;;;;4.40;2.42;;;16.70;99.90;;;;;;2495508;23;20079;-72
2023/08/27 02:59:54;;;;;;;3.40;2.33;;;16.70;99.90;;;;;;2495474;23;20550;-72
2023/08/27 03:00:55;;;;;;;3.70;2.40;;;16.70;99.90;;;;;;2495101;23;20462;-72
2023/08/27 03:01:55;;;;;;;2.80;2.42;;;16.70;99.90;;;;;;2495924;23;20006;-72
2023/08/27 03:02:56;;;;;;;2.90;2.50;;;16.70;99.90;;;;;;2494507;23;19999;-72
2023/08/27 03:03:57;;;;;;;4.18;2.58;;;16.70;99.90;;;;;;2495532;23;20003;-72
2023/08/27 03:05:04;;;;;;;2.30;2.10;;;16.70;99.90;;;;;;2495880;23;20010;-72
2023/08/27 03:06:04;;;;;;;2.65;2.03;;;16.70;99.90;;;;;;2494762;23;19999;-72
2023/08/27 03:07:05;;;;;;;3.35;2.20;;;16.70;99.90;;;;;;2494079;23;20000;-72
2023/08/27 03:08:05;;;;;;;4.68;2.15;;;16.70;99.90;;;;;;2495661;23;20003;-72
2023/08/27 03:09:06;;;;;;;4.13;2.28;;;16.70;99.90;;;;;;2494416;23;20057;-72
2023/08/27 03:10:07;;;;;;;2.72;2.35;;;16.70;99.90;;;;;;2495916;23;20003;-72
2023/08/27 03:11:08;;;;;;;3.03;1.98;;;16.70;99.90;;;;;;2494847;23;20492;-72
2023/08/27 03:12:08;;;;;;;3.17;2.00;;;16.70;99.90;;;;;;2493564;23;20119;-72
2023/08/27 03:13:10;;;;;;;2.60;2.40;;;16.70;99.90;;;;;;2495485;23;20382;-72
2023/08/27 03:14:10;;;;;;;4.18;2.50;;;16.70;99.90;;;;;;2495511;23;20010;-72
2023/08/27 03:15:12;;;;;;;3.40;2.25;;;16.70;99.90;;;;;;2495299;23;20014;-72
2023/08/27 03:16:13;;;;;;;2.70;2.15;;;16.70;99.90;;;;;;2495506;23;19999;-72
2023/08/27 03:17:14;;;;;;;5.65;2.22;;;16.70;99.90;;;;;;2495617;23;20009;-72
2023/08/27 03:18:15;;;;;;;2.58;1.98;;;16.70;99.90;;;;;;2495601;23;20004;-72
2023/08/27 03:19:15;;;;;;;2.25;1.92;;;16.70;99.90;;;;;;2495916;23;20433;-72
2023/08/27 03:20:16;;;;;;;3.92;2.60;;;16.70;99.90;;;;;;2482640;23;20373;-72
2023/08/27 03:21:16;;;;;;;5.57;2.50;;;16.70;99.90;;;;;;2482263;23;20091;-72
2023/08/27 03:22:17;;;;;;;3.60;1.88;;;16.70;99.90;;;;;;2494269;23;20782;-72
2023/08/27 03:23:18;;;;;;;2.03;1.85;;;16.70;99.90;;;;;;2494594;23;20014;-72
2023/08/27 03:24:19;;;;;;;2.72;2.15;;;16.70;99.90;;;;;;2495758;23;20012;-72
2023/08/27 03:25:19;;;;;;;4.55;2.13;;;16.70;99.90;;;;;;2495664;23;20014;-72
2023/08/27 03:26:20;;;;;;;4.63;2.58;;;16.70;99.90;;;;;;2494874;23;20016;-72
2023/08/27 03:27:20;;;;;;;4.35;2.42;;;16.70;99.90;;;;;;2495679;23;20038;-72
2023/08/27 03:28:21;;;;;;;4.07;1.92;;;16.60;99.90;;;;;;2482437;23;20018;-72
2023/08/27 03:29:22;;;;;;;2.03;1.85;;;16.70;99.90;;;;;;2482817;23;20082;-72
2023/08/27 03:30:22;;;;;;;4.32;2.30;;;16.70;99.90;;;;;;2495145;23;20075;-72
2023/08/27 03:31:23;;;;;;;2.40;2.17;;;16.70;99.90;;;;;;2494971;23;20121;-72
2023/08/27 03:32:24;;;;;;;2.47;1.90;;;16.70;99.90;;;;;;2494424;23;20003;-72
2023/08/27 03:33:24;;;;;;;5.93;2.33;;;16.70;99.90;;;;;;2495625;23;20437;-72
2023/08/27 03:34:25;;;;;;;2.50;2.20;;;16.70;99.90;;;;;;2495457;23;20015;-72
2023/08/27 03:35:25;;;;;;;3.53;2.05;;;16.70;99.90;;;;;;2483205;23;20056;-72
2023/08/27 03:36:26;;;;;;;3.97;2.00;;;16.70;99.90;;;;;;2483184;23;20014;-72
2023/08/27 03:37:26;;;;;;;2.65;1.90;;;16.70;99.90;;;;;;2494426;23;20008;-72
2023/08/27 03:38:27;;;;;;;2.83;1.92;;;16.70;99.90;;;;;;2495021;23;20011;-72
2023/08/27 03:39:27;;;;;;;2.15;1.92;;;16.60;99.90;;;;;;2495084;23;20006;-72
2023/08/27 03:40:29;;;;;;;3.00;1.70;;;16.60;99.90;;;;;;2495069;23;20058;-72
2023/08/27 03:41:30;;;;;;;2.92;2.40;;;16.60;99.90;;;;;;2495251;23;19999;-72
2023/08/27 03:42:30;;;;;;;2.00;1.80;;;16.60;99.90;;;;;;2494642;23;20519;-72
2023/08/27 03:43:31;;;;;;;4.30;2.20;;;16.60;99.90;;;;;;2495684;23;20015;-72
2023/08/27 03:44:32;;;;;;;2.58;2.05;;;16.60;99.90;;;;;;2494671;23;20011;-72
2023/08/27 03:45:38;;;;;;;1.88;1.70;;;16.60;99.90;;;;;;2495528;23;20007;-72
2023/08/27 03:46:42;;;;;;;3.33;1.95;;;16.60;99.90;;;;;;2495701;23;20018;-72
2023/08/27 03:47:42;;;;;;;3.30;1.83;;;16.60;99.90;;;;;;2495474;23;20007;-72
2023/08/27 03:48:43;;;;;;;3.58;2.20;;;16.60;99.90;;;;;;2495059;23;20011;-72
2023/08/27 03:49:44;;;;;;;5.05;2.33;;;16.60;99.90;;;;;;2494794;23;20488;-72
2023/08/27 03:50:45;;;;;;;3.05;2.15;;;16.60;99.90;;;;;;2482388;23;20012;-72
2023/08/27 03:51:46;;;;;;;3.80;1.98;;;16.60;99.90;;;;;;2482263;23;20374;-72
2023/08/27 03:52:48;;;;;;;2.03;1.83;;;16.50;99.90;;;;;;2481926;23;20030;-72
2023/08/27 03:53:48;;;;;;;3.13;1.83;;;16.50;99.90;;;;;;2494365;23;20767;-72
2023/08/27 03:54:49;;;;;;;4.00;1.75;;;16.50;99.90;;;;;;2495291;23;20007;-72
2023/08/27 03:55:50;;;;;;;3.63;1.85;;;16.50;99.90;;;;;;2482005;23;20072;-72
2023/08/27 03:56:50;;;;;;;2.72;1.75;;;16.50;99.90;;;;;;2482678;23;20004;-72
2023/08/27 03:57:51;;;;;;;2.67;2.10;;;16.50;99.90;;;;;;2483221;23;20035;-72
2023/08/27 03:58:52;;;;;;;2.58;1.80;;;16.50;99.90;;;;;;2470708;24;20016;-72
2023/08/27 03:59:52;;;;;;;2.55;2.10;;;16.50;99.90;;;;;;2471170;24;20004;-72
2023/08/27 04:00:53;;;;;;;4.80;1.75;;;16.40;99.90;;;;;;2482228;23;20007;-72
2023/08/27 04:01:54;;;;;;;2.47;2.10;;;16.40;99.90;;;;;;2494730;23;20126;-72
2023/08/27 04:02:55;;;;;;;4.35;1.90;;;16.40;99.90;;;;;;2495077;23;20328;-72
2023/08/27 04:03:55;;;;;;;1.83;1.70;;;16.40;99.90;;;;;;2494645;23;19999;-72
2023/08/27 04:04:56;;;;;;;2.42;2.00;;;16.40;99.90;;;;;;2494321;23;20014;-72
2023/08/27 04:05:56;;;;;;;3.03;2.00;;;16.40;99.90;;;;;;2494845;23;20007;-72
2023/08/27 04:06:57;;;;;;;2.83;1.83;;;16.40;99.90;;;;;;2494935;23;19995;-72
2023/08/27 04:07:58;;;;;;;2.38;2.00;;;16.40;99.90;;;;;;2494458;23;20679;-72
2023/08/27 04:08:58;;;;;;;2.15;2.05;;;16.40;99.90;;;;;;2495522;23;20071;-72
2023/08/27 04:09:59;;;;;;;2.33;2.10;;;16.40;99.90;;;;;;2494934;23;20078;-72
2023/08/27 04:11:01;;;;;;;4.38;2.17;;;16.40;99.90;;;;;;2495697;23;20017;-72
2023/08/27 04:12:02;;;;;;;3.40;2.08;;;16.40;99.90;;;;;;2494482;23;20324;-72
2023/08/27 04:13:02;;;;;;;4.20;2.42;;;16.30;99.90;;;;;;2495073;23;20087;-72
2023/08/27 04:14:04;;;;;;;2.17;1.98;;;16.30;99.90;;;;;;2494979;23;20003;-72
2023/08/27 04:15:05;;;;;;;2.70;1.92;;;16.30;99.90;;;;;;2495649;23;20444;-72
2023/08/27 04:16:07;;;;;;;3.25;2.05;;;16.30;99.90;;;;;;2494686;23;20003;-72
2023/08/27 04:17:08;;;;;;;1.83;1.73;;;16.30;99.90;;;;;;2495489;23;20074;-72
2023/08/27 04:18:08;;;;;;;3.15;1.83;;;16.30;99.90;;;;;;2495272;23;19999;-72
2023/08/27 04:19:09;;;;;;;2.20;1.80;;;16.30;99.90;;;;;;2495359;23;20373;-72
2023/08/27 04:20:10;;;;;;;3.92;2.25;;;16.30;99.90;;;;;;2482576;23;20007;-72
2023/08/27 04:21:10;;;;;;;1.70;1.60;;;16.30;99.90;;;;;;2482816;23;20007;-72
2023/08/27 04:22:11;;;;;;;2.10;1.90;;;16.30;99.90;;;;;;2494603;23;20086;-72
2023/08/27 04:23:11;;;;;;;4.00;1.80;;;16.30;99.90;;;;;;2493445;23;20673;-72
2023/08/27 04:24:12;;;;;;;2.58;1.80;;;16.30;99.90;;;;;;2495404;23;20769;-72
2023/08/27 04:25:15;;;;;;;2.10;1.65;;;16.30;99.90;;;;;;2495975;23;20063;-72
2023/08/27 04:26:18;;;;;;;1.98;1.70;;;16.20;99.90;;;;;;2495988;23;20015;-72
2023/08/27 04:27:18;;;;;;;2.15;1.70;;;16.30;99.90;;;;;;2496578;23;20017;-72
2023/08/27 04:28:19;;;;;;;3.65;1.98;;;16.20;99.90;;;;;;2495925;23;20011;-72
2023/08/27 04:29:20;;;;;;;5.65;2.13;;;16.30;99.90;;;;;;2496314;23;20018;-72
2023/08/27 04:30:20;;;;;;;2.45;1.80;;;16.20;99.90;;;;;;2496231;23;20014;-72
2023/08/27 04:31:21;;;;;;;3.78;1.40;;;16.20;99.90;;;;;;2495306;23;20011;-72
2023/08/27 04:32:22;;;;;;;3.65;1.83;;;16.20;99.90;;;;;;2495675;23;20018;-72
2023/08/27 04:33:22;;;;;;;2.53;1.63;;;16.20;99.90;;;;;;2496250;23;20082;-73
2023/08/27 04:34:23;;;;;;;3.38;1.80;;;16.20;99.90;;;;;;2495470;23;20046;-72
2023/08/27 04:35:23;;;;;;;1.85;1.50;;;16.20;99.90;;;;;;2496463;23;20007;-72
2023/08/27 04:36:24;;;;;;;4.07;1.52;;;16.20;99.90;;;;;;2495282;23;20077;-73
2023/08/27 04:37:24;;;;;;;1.60;1.50;;;16.20;99.90;;;;;;2495763;23;20058;-73
2023/08/27 04:38:25;;;;;;;2.35;1.40;;;16.10;99.90;;;;;;2495260;23;20034;-72
2023/08/27 04:39:26;;;;;;;1.92;1.60;;;16.20;99.90;;;;;;2495560;23;20031;-72
2023/08/27 04:40:28;;;;;;;4.10;1.83;;;16.20;99.90;;;;;;2496023;23;20007;-72
2023/08/27 04:41:29;;;;;;;2.35;1.60;;;16.20;99.90;;;;;;2496014;23;20003;-72
2023/08/27 04:42:29;;;;;;;1.75;1.65;;;16.10;99.90;;;;;;2494848;23;20046;-73
2023/08/27 04:43:30;;;;;;;3.60;1.58;;;16.10;99.90;;;;;;2495892;23;20459;-73
2023/08/27 04:44:31;;;;;;;2.42;1.60;;;16.20;99.90;;;;;;2495809;23;20007;-73
2023/08/27 04:45:32;;;;;;;3.70;1.42;;;16.10;99.90;;;;;;2495752;23;20011;-72
2023/08/27 04:46:33;;;;;;;2.72;1.50;;;16.10;99.90;;;;;;2496479;23;20038;-72
2023/08/27 04:47:33;;;;;;;1.58;1.42;;;16.10;99.90;;;;;;2495940;23;20050;-72
2023/08/27 04:48:34;;;;;;;2.58;1.38;;;16.10;99.90;;;;;;2483490;23;20023;-72
2023/08/27 04:49:35;;;;;;;3.55;1.65;;;16.10;99.90;;;;;;2483683;23;20087;-72
2023/08/27 04:50:37;;;;;;;7.15;1.48;;;16.20;99.90;;;;;;2494051;23;20011;-72
2023/08/27 04:51:38;;;;;;;5.07;1.42;;;16.20;99.90;;;;;;2495656;23;20082;-72
2023/08/27 04:52:38;;;;;;;1.67;1.38;;;16.20;99.90;;;;;;2482390;23;20018;-72
2023/08/27 04:53:39;;;;;;;1.55;1.38;;;16.20;99.90;;;;;;2482296;23;20330;-72
2023/08/27 04:54:39;;;;;;;2.15;1.60;;;16.30;99.90;;;;;;2495971;23;20011;-72
2023/08/27 04:55:40;;;;;;;4.25;1.63;;;16.20;99.90;;;;;;2495628;23;20007;-72
2023/08/27 04:56:40;;;;;;;4.55;1.77;;;16.20;99.90;;;;;;2495081;23;20010;-72
2023/08/27 04:57:41;;;;;;;2.05;1.30;;;16.30;99.90;;;;;;2495682;23;20031;-72
2023/08/27 04:58:41;;;;;;;2.92;1.65;;;16.30;99.90;;;;;;2495434;23;20050;-72
2023/08/27 04:59:42;;;;;;;2.53;1.55;;;16.30;99.90;;;;;;2496578;23;20361;-72
2023/08/27 05:00:43;;;;;;;1.70;1.60;;;16.30;99.90;;;;;;2495629;23;20332;-72
2023/08/27 05:01:43;;;;;;;2.97;1.48;;;16.40;99.90;;;;;;2495871;23;20011;-72
2023/08/27 05:02:45;;;;;;;1.90;1.40;;;16.40;99.90;;;;;;2495550;23;20007;-72
2023/08/27 05:03:45;;;;;;;2.15;1.50;;;16.40;99.90;;;;;;2496095;23;20003;-72
2023/08/27 05:04:46;;;;;;;7.22;1.67;;;16.40;99.90;;;;;;2482884;23;20018;-72
2023/08/27 05:05:46;;;;;;;2.00;1.40;;;16.40;99.90;;;;;;2483814;23;20022;-72
2023/08/27 05:06:47;;;;;;;4.45;1.40;;;16.40;99.90;;;;;;2495027;23;20082;-72
2023/08/27 05:07:48;;;;;;;2.28;1.42;;;16.40;99.90;;;;;;2483852;23;20011;-72
2023/08/27 05:08:48;;;;;;;1.45;1.30;;;16.50;99.90;;;;;;2481463;23;20015;-72
2023/08/27 05:09:49;;;;;;;1.45;1.25;;;16.40;99.90;;;;;;2496100;23;20003;-72
2023/08/27 05:10:49;;;;;;;2.60;1.35;;;16.40;99.90;;;;;;2495683;23;20126;-72
2023/08/27 05:11:50;;;;;;;6.15;1.63;;;16.50;99.90;;;;;;2483248;23;20014;-72
2023/08/27 05:12:51;;;;;;;1.05;1.05;;;16.50;99.90;;;;;;2500676;23;20015;-72
2023/08/27 05:13:51;;;;;;;1.67;1.20;;;16.50;99.90;;;;;;2507960;23;20002;-72
2023/08/27 05:14:52;;;;;;;1.65;1.55;;;16.50;99.90;;;;;;2507672;23;20736;-72
2023/08/27 05:15:52;;;;;;;2.50;1.48;;;16.50;99.90;;;;;;2507701;23;20086;-72
2023/08/27 05:16:53;;;;;;;1.60;1.15;;;16.50;99.90;;;;;;2507526;23;20003;-72
2023/08/27 05:17:53;;;;;;;2.55;1.23;;;16.60;99.90;;;;;;2508259;23;20023;-72
2023/08/27 05:18:54;;;;;;;3.22;1.20;;;16.60;99.90;;;;;;2507394;23;20011;-72
2023/08/27 05:19:55;;;;;;;2.22;1.42;;;16.60;99.90;;;;;;2507838;23;20099;-72
2023/08/27 05:20:55;;;;;;;4.25;1.63;;;16.60;99.90;;;;;;2507725;23;20003;-72